sensor_id;sensor_type;location;lat;lon;timestamp;P1;durP1;ratioP1;P2;durP2;ratioP2
28519;SDS011;15732;48.534;20.382;2022-11-15T00:01:17;10.50;;;4.90;;
28519;SDS011;15732;48.534;20.382;2022-11-15T00:03:44;14.50;;;5.50;;
28519;SDS011;15732;48.534;20.382;2022-11-15T00:06:16;11.05;;;5.28;;
28519;SDS011;15732;48.534;20.382;2022-11-15T00:08:43;13.02;;;6.15;;
28519;SDS011;15732;48.534;20.382;2022-11-15T00:11:10;8.32;;;4.47;;
28519;SDS011;15732;48.534;20.382;2022-11-15T00:13:38;14.32;;;5.72;;
28519;SDS011;15732;48.534;20.382;2022-11-15T00:16:05;15.98;;;5.75;;
28519;SDS011;15732;48.534;20.382;2022-11-15T00:18:34;11.68;;;5.55;;
28519;SDS011;15732;48.534;20.382;2022-11-15T00:21:03;11.95;;;6.07;;
28519;SDS011;15732;48.534;20.382;2022-11-15T00:23:31;15.10;;;6.03;;
28519;SDS011;15732;48.534;20.382;2022-11-15T00:25:59;9.82;;;4.80;;
28519;SDS011;15732;48.534;20.382;2022-11-15T00:28:26;14.73;;;5.70;;
28519;SDS011;15732;48.534;20.382;2022-11-15T00:30:54;22.03;;;6.57;;
28519;SDS011;15732;48.534;20.382;2022-11-15T00:33:27;17.40;;;6.40;;
28519;SDS011;15732;48.534;20.382;2022-11-15T00:35:59;16.73;;;6.05;;
28519;SDS011;15732;48.534;20.382;2022-11-15T00:38:34;9.77;;;5.03;;
28519;SDS011;15732;48.534;20.382;2022-11-15T00:41:03;13.05;;;5.85;;
28519;SDS011;15732;48.534;20.382;2022-11-15T00:43:35;13.40;;;6.15;;
28519;SDS011;15732;48.534;20.382;2022-11-15T00:46:01;18.83;;;7.15;;
28519;SDS011;15732;48.534;20.382;2022-11-15T00:48:29;11.77;;;5.20;;
28519;SDS011;15732;48.534;20.382;2022-11-15T00:50:57;10.47;;;4.67;;
28519;SDS011;15732;48.534;20.382;2022-11-15T00:53:24;13.77;;;5.20;;
28519;SDS011;15732;48.534;20.382;2022-11-15T00:55:51;10.50;;;5.20;;
28519;SDS011;15732;48.534;20.382;2022-11-15T00:58:18;13.30;;;5.25;;
28519;SDS011;15732;48.534;20.382;2022-11-15T01:00:45;9.55;;;4.60;;
28519;SDS011;15732;48.534;20.382;2022-11-15T01:03:16;11.32;;;5.68;;
28519;SDS011;15732;48.534;20.382;2022-11-15T01:05:44;12.25;;;5.68;;
28519;SDS011;15732;48.534;20.382;2022-11-15T01:08:14;15.20;;;5.03;;
28519;SDS011;15732;48.534;20.382;2022-11-15T01:10:42;12.50;;;5.45;;
28519;SDS011;15732;48.534;20.382;2022-11-15T01:13:13;10.32;;;3.80;;
28519;SDS011;15732;48.534;20.382;2022-11-15T01:15:44;9.57;;;4.40;;
28519;SDS011;15732;48.534;20.382;2022-11-15T01:18:15;19.98;;;4.07;;
28519;SDS011;15732;48.534;20.382;2022-11-15T01:20:42;9.63;;;4.28;;
28519;SDS011;15732;48.534;20.382;2022-11-15T01:23:13;11.07;;;4.38;;
28519;SDS011;15732;48.534;20.382;2022-11-15T01:25:41;11.40;;;4.93;;
28519;SDS011;15732;48.534;20.382;2022-11-15T01:28:08;10.00;;;4.75;;
28519;SDS011;15732;48.534;20.382;2022-11-15T01:30:36;9.43;;;3.95;;
28519;SDS011;15732;48.534;20.382;2022-11-15T01:33:06;10.32;;;4.43;;
28519;SDS011;15732;48.534;20.382;2022-11-15T01:35:37;11.20;;;5.00;;
28519;SDS011;15732;48.534;20.382;2022-11-15T01:38:06;8.07;;;3.72;;
28519;SDS011;15732;48.534;20.382;2022-11-15T01:40:33;14.68;;;6.18;;
28519;SDS011;15732;48.534;20.382;2022-11-15T01:43:18;11.55;;;4.22;;
28519;SDS011;15732;48.534;20.382;2022-11-15T01:45:47;14.27;;;5.82;;
28519;SDS011;15732;48.534;20.382;2022-11-15T01:48:49;12.25;;;5.35;;
28519;SDS011;15732;48.534;20.382;2022-11-15T01:51:19;12.55;;;5.82;;
28519;SDS011;15732;48.534;20.382;2022-11-15T01:53:49;10.43;;;5.35;;
28519;SDS011;15732;48.534;20.382;2022-11-15T01:56:23;11.35;;;4.50;;
28519;SDS011;15732;48.534;20.382;2022-11-15T01:58:58;9.80;;;4.13;;
28519;SDS011;15732;48.534;20.382;2022-11-15T02:01:28;10.18;;;3.05;;
28519;SDS011;15732;48.534;20.382;2022-11-15T02:04:36;6.05;;;2.63;;
28519;SDS011;15732;48.534;20.382;2022-11-15T02:06:58;12.82;;;3.38;;
28519;SDS011;15732;48.534;20.382;2022-11-15T02:09:28;11.50;;;3.67;;
28519;SDS011;15732;48.534;20.382;2022-11-15T02:11:56;10.27;;;4.15;;
28519;SDS011;15732;48.534;20.382;2022-11-15T02:14:23;9.60;;;4.38;;
28519;SDS011;15732;48.534;20.382;2022-11-15T02:19:36;12.25;;;5.30;;
28519;SDS011;15732;48.534;20.382;2022-11-15T02:30:41;12.60;;;4.82;;
28519;SDS011;15732;48.534;20.382;2022-11-15T02:36:12;15.27;;;4.63;;
28519;SDS011;15732;48.534;20.382;2022-11-15T02:41:57;13.27;;;5.03;;
28519;SDS011;15732;48.534;20.382;2022-11-15T02:45:06;12.52;;;4.00;;
28519;SDS011;15732;48.534;20.382;2022-11-15T02:47:42;10.93;;;4.80;;
28519;SDS011;15732;48.534;20.382;2022-11-15T02:50:12;12.07;;;5.25;;
28519;SDS011;15732;48.534;20.382;2022-11-15T02:52:45;9.10;;;4.65;;
28519;SDS011;15732;48.534;20.382;2022-11-15T02:55:30;13.23;;;4.57;;
28519;SDS011;15732;48.534;20.382;2022-11-15T03:00:27;10.55;;;3.85;;
28519;SDS011;15732;48.534;20.382;2022-11-15T03:06:22;7.95;;;3.53;;
28519;SDS011;15732;48.534;20.382;2022-11-15T03:08:57;12.27;;;4.25;;
28519;SDS011;15732;48.534;20.382;2022-11-15T03:11:32;7.95;;;3.95;;
28519;SDS011;15732;48.534;20.382;2022-11-15T03:14:24;8.13;;;3.88;;
28519;SDS011;15732;48.534;20.382;2022-11-15T03:16:58;11.73;;;4.20;;
28519;SDS011;15732;48.534;20.382;2022-11-15T03:22:20;13.65;;;4.43;;
28519;SDS011;15732;48.534;20.382;2022-11-15T03:24:51;10.40;;;3.35;;
28519;SDS011;15732;48.534;20.382;2022-11-15T03:27:23;8.70;;;4.18;;
28519;SDS011;15732;48.534;20.382;2022-11-15T03:29:55;13.32;;;4.60;;
28519;SDS011;15732;48.534;20.382;2022-11-15T03:32:29;15.48;;;4.93;;
28519;SDS011;15732;48.534;20.382;2022-11-15T03:40:40;11.68;;;4.22;;
28519;SDS011;15732;48.534;20.382;2022-11-15T03:45:55;9.30;;;3.90;;
28519;SDS011;15732;48.534;20.382;2022-11-15T03:48:30;10.68;;;3.92;;
28519;SDS011;15732;48.534;20.382;2022-11-15T03:51:07;8.88;;;3.17;;
28519;SDS011;15732;48.534;20.382;2022-11-15T03:53:35;8.03;;;2.60;;
28519;SDS011;15732;48.534;20.382;2022-11-15T03:56:02;8.43;;;4.13;;
28519;SDS011;15732;48.534;20.382;2022-11-15T03:58:30;12.60;;;4.70;;
28519;SDS011;15732;48.534;20.382;2022-11-15T04:01:01;8.25;;;3.00;;
28519;SDS011;15732;48.534;20.382;2022-11-15T04:03:32;6.88;;;3.47;;
28519;SDS011;15732;48.534;20.382;2022-11-15T04:06:03;6.88;;;3.25;;
28519;SDS011;15732;48.534;20.382;2022-11-15T04:08:31;4.97;;;2.53;;
28519;SDS011;15732;48.534;20.382;2022-11-15T04:10:58;8.55;;;3.70;;
28519;SDS011;15732;48.534;20.382;2022-11-15T04:13:26;6.32;;;3.97;;
28519;SDS011;15732;48.534;20.382;2022-11-15T04:15:53;11.75;;;4.25;;
28519;SDS011;15732;48.534;20.382;2022-11-15T04:18:20;6.65;;;3.20;;
28519;SDS011;15732;48.534;20.382;2022-11-15T04:20:47;12.05;;;4.65;;
28519;SDS011;15732;48.534;20.382;2022-11-15T04:23:33;6.47;;;2.97;;
28519;SDS011;15732;48.534;20.382;2022-11-15T04:26:32;12.43;;;3.58;;
28519;SDS011;15732;48.534;20.382;2022-11-15T04:28:58;12.90;;;3.47;;
28519;SDS011;15732;48.534;20.382;2022-11-15T04:31:44;8.55;;;2.95;;
28519;SDS011;15732;48.534;20.382;2022-11-15T04:34:11;8.80;;;2.65;;
28519;SDS011;15732;48.534;20.382;2022-11-15T04:36:39;13.60;;;4.35;;
28519;SDS011;15732;48.534;20.382;2022-11-15T04:39:24;7.07;;;2.80;;
28519;SDS011;15732;48.534;20.382;2022-11-15T04:41:56;6.57;;;2.80;;
28519;SDS011;15732;48.534;20.382;2022-11-15T04:44:23;7.50;;;3.00;;
28519;SDS011;15732;48.534;20.382;2022-11-15T04:46:50;11.00;;;3.88;;
28519;SDS011;15732;48.534;20.382;2022-11-15T04:49:18;5.95;;;3.13;;
28519;SDS011;15732;48.534;20.382;2022-11-15T04:51:49;8.35;;;2.65;;
28519;SDS011;15732;48.534;20.382;2022-11-15T04:54:16;8.45;;;3.50;;
28519;SDS011;15732;48.534;20.382;2022-11-15T04:56:43;7.32;;;2.75;;
28519;SDS011;15732;48.534;20.382;2022-11-15T04:59:14;8.85;;;3.38;;
28519;SDS011;15732;48.534;20.382;2022-11-15T05:01:41;8.45;;;3.35;;
28519;SDS011;15732;48.534;20.382;2022-11-15T05:04:08;7.85;;;2.88;;
28519;SDS011;15732;48.534;20.382;2022-11-15T05:06:48;7.35;;;2.25;;
28519;SDS011;15732;48.534;20.382;2022-11-15T05:09:20;8.52;;;2.90;;
28519;SDS011;15732;48.534;20.382;2022-11-15T05:11:47;8.32;;;3.45;;
28519;SDS011;15732;48.534;20.382;2022-11-15T05:14:14;7.05;;;2.85;;
28519;SDS011;15732;48.534;20.382;2022-11-15T05:16:46;10.82;;;4.30;;
28519;SDS011;15732;48.534;20.382;2022-11-15T05:19:13;16.77;;;3.42;;
28519;SDS011;15732;48.534;20.382;2022-11-15T05:21:40;14.00;;;3.67;;
28519;SDS011;15732;48.534;20.382;2022-11-15T05:24:09;7.80;;;3.03;;
28519;SDS011;15732;48.534;20.382;2022-11-15T05:26:40;5.45;;;2.85;;
28519;SDS011;15732;48.534;20.382;2022-11-15T05:29:08;9.35;;;3.25;;
28519;SDS011;15732;48.534;20.382;2022-11-15T05:31:39;8.45;;;2.88;;
28519;SDS011;15732;48.534;20.382;2022-11-15T05:34:07;7.25;;;2.33;;
28519;SDS011;15732;48.534;20.382;2022-11-15T05:36:38;8.18;;;2.22;;
28519;SDS011;15732;48.534;20.382;2022-11-15T05:39:07;6.20;;;2.60;;
28519;SDS011;15732;48.534;20.382;2022-11-15T05:44:39;4.68;;;2.38;;
28519;SDS011;15732;48.534;20.382;2022-11-15T05:47:10;5.70;;;2.60;;
28519;SDS011;15732;48.534;20.382;2022-11-15T05:49:43;5.95;;;2.83;;
28519;SDS011;15732;48.534;20.382;2022-11-15T05:52:12;5.72;;;2.42;;
28519;SDS011;15732;48.534;20.382;2022-11-15T05:54:43;6.35;;;2.70;;
28519;SDS011;15732;48.534;20.382;2022-11-15T05:57:10;10.35;;;3.20;;
28519;SDS011;15732;48.534;20.382;2022-11-15T05:59:37;6.97;;;3.03;;
28519;SDS011;15732;48.534;20.382;2022-11-15T06:02:09;9.63;;;4.13;;
28519;SDS011;15732;48.534;20.382;2022-11-15T06:04:37;6.82;;;2.88;;
28519;SDS011;15732;48.534;20.382;2022-11-15T06:07:04;7.75;;;3.05;;
28519;SDS011;15732;48.534;20.382;2022-11-15T06:09:30;9.05;;;3.53;;
28519;SDS011;15732;48.534;20.382;2022-11-15T06:11:57;9.95;;;3.13;;
28519;SDS011;15732;48.534;20.382;2022-11-15T06:14:28;6.68;;;3.03;;
28519;SDS011;15732;48.534;20.382;2022-11-15T06:16:55;6.30;;;2.80;;
28519;SDS011;15732;48.534;20.382;2022-11-15T06:19:22;12.13;;;4.32;;
28519;SDS011;15732;48.534;20.382;2022-11-15T06:21:49;6.78;;;2.88;;
28519;SDS011;15732;48.534;20.382;2022-11-15T06:24:17;8.27;;;2.97;;
28519;SDS011;15732;48.534;20.382;2022-11-15T06:26:44;7.70;;;3.40;;
28519;SDS011;15732;48.534;20.382;2022-11-15T06:29:11;8.82;;;2.92;;
28519;SDS011;15732;48.534;20.382;2022-11-15T06:31:39;9.65;;;2.80;;
28519;SDS011;15732;48.534;20.382;2022-11-15T06:34:06;5.40;;;2.65;;
28519;SDS011;15732;48.534;20.382;2022-11-15T06:36:34;8.73;;;2.65;;
28519;SDS011;15732;48.534;20.382;2022-11-15T06:39:04;4.57;;;2.17;;
28519;SDS011;15732;48.534;20.382;2022-11-15T06:41:33;6.93;;;2.50;;
28519;SDS011;15732;48.534;20.382;2022-11-15T06:44:01;6.97;;;2.67;;
28519;SDS011;15732;48.534;20.382;2022-11-15T06:46:28;9.20;;;3.42;;
28519;SDS011;15732;48.534;20.382;2022-11-15T06:48:56;8.52;;;3.38;;
28519;SDS011;15732;48.534;20.382;2022-11-15T06:51:23;3.72;;;2.03;;
28519;SDS011;15732;48.534;20.382;2022-11-15T06:53:50;5.93;;;3.00;;
28519;SDS011;15732;48.534;20.382;2022-11-15T06:56:18;6.10;;;2.08;;
28519;SDS011;15732;48.534;20.382;2022-11-15T06:58:45;8.10;;;2.47;;
28519;SDS011;15732;48.534;20.382;2022-11-15T07:01:13;6.95;;;3.22;;
28519;SDS011;15732;48.534;20.382;2022-11-15T07:03:44;7.88;;;2.92;;
28519;SDS011;15732;48.534;20.382;2022-11-15T07:06:12;7.43;;;2.73;;
28519;SDS011;15732;48.534;20.382;2022-11-15T07:08:39;7.22;;;3.10;;
28519;SDS011;15732;48.534;20.382;2022-11-15T07:11:08;8.13;;;3.78;;
28519;SDS011;15732;48.534;20.382;2022-11-15T07:13:39;12.07;;;4.00;;
28519;SDS011;15732;48.534;20.382;2022-11-15T07:16:10;10.73;;;4.72;;
28519;SDS011;15732;48.534;20.382;2022-11-15T07:18:41;10.48;;;3.65;;
28519;SDS011;15732;48.534;20.382;2022-11-15T07:21:09;12.18;;;3.83;;
28519;SDS011;15732;48.534;20.382;2022-11-15T07:23:41;6.43;;;3.22;;
28519;SDS011;15732;48.534;20.382;2022-11-15T07:26:12;6.93;;;3.30;;
28519;SDS011;15732;48.534;20.382;2022-11-15T07:28:43;11.25;;;4.35;;
28519;SDS011;15732;48.534;20.382;2022-11-15T07:31:10;10.07;;;4.25;;
28519;SDS011;15732;48.534;20.382;2022-11-15T07:33:37;14.05;;;4.53;;
28519;SDS011;15732;48.534;20.382;2022-11-15T07:36:05;12.63;;;4.80;;
28519;SDS011;15732;48.534;20.382;2022-11-15T07:38:34;5.88;;;2.35;;
28519;SDS011;15732;48.534;20.382;2022-11-15T07:41:02;11.23;;;4.20;;
28519;SDS011;15732;48.534;20.382;2022-11-15T07:46:03;6.60;;;3.60;;
28519;SDS011;15732;48.534;20.382;2022-11-15T07:48:38;13.80;;;5.22;;
28519;SDS011;15732;48.534;20.382;2022-11-15T07:51:06;11.55;;;5.20;;
28519;SDS011;15732;48.534;20.382;2022-11-15T07:53:37;9.98;;;5.25;;
28519;SDS011;15732;48.534;20.382;2022-11-15T07:56:09;16.10;;;5.30;;
28519;SDS011;15732;48.534;20.382;2022-11-15T07:58:36;12.27;;;5.63;;
28519;SDS011;15732;48.534;20.382;2022-11-15T08:01:04;13.95;;;5.80;;
28519;SDS011;15732;48.534;20.382;2022-11-15T08:03:36;12.55;;;4.25;;
28519;SDS011;15732;48.534;20.382;2022-11-15T08:06:07;12.52;;;5.75;;
28519;SDS011;15732;48.534;20.382;2022-11-15T08:08:34;11.35;;;4.78;;
28519;SDS011;15732;48.534;20.382;2022-11-15T08:11:05;9.85;;;3.28;;
28519;SDS011;15732;48.534;20.382;2022-11-15T08:13:33;9.65;;;4.40;;
28519;SDS011;15732;48.534;20.382;2022-11-15T08:16:00;6.07;;;3.25;;
28519;SDS011;15732;48.534;20.382;2022-11-15T08:18:28;12.13;;;3.28;;
28519;SDS011;15732;48.534;20.382;2022-11-15T08:20:59;7.25;;;2.75;;
28519;SDS011;15732;48.534;20.382;2022-11-15T08:23:31;10.18;;;3.47;;
28519;SDS011;15732;48.534;20.382;2022-11-15T08:26:03;6.72;;;2.95;;
28519;SDS011;15732;48.534;20.382;2022-11-15T08:28:31;9.52;;;3.70;;
28519;SDS011;15732;48.534;20.382;2022-11-15T08:30:58;4.40;;;2.08;;
28519;SDS011;15732;48.534;20.382;2022-11-15T08:33:26;10.43;;;3.67;;
28519;SDS011;15732;48.534;20.382;2022-11-15T08:35:55;11.30;;;3.40;;
28519;SDS011;15732;48.534;20.382;2022-11-15T08:38:23;8.70;;;3.63;;
28519;SDS011;15732;48.534;20.382;2022-11-15T08:40:51;6.18;;;2.92;;
28519;SDS011;15732;48.534;20.382;2022-11-15T08:43:28;6.63;;;2.45;;
28519;SDS011;15732;48.534;20.382;2022-11-15T08:45:59;6.18;;;2.78;;
28519;SDS011;15732;48.534;20.382;2022-11-15T08:48:26;5.78;;;2.95;;
28519;SDS011;15732;48.534;20.382;2022-11-15T08:50:54;7.32;;;3.33;;
28519;SDS011;15732;48.534;20.382;2022-11-15T08:53:21;9.35;;;3.90;;
28519;SDS011;15732;48.534;20.382;2022-11-15T08:55:48;6.78;;;3.25;;
28519;SDS011;15732;48.534;20.382;2022-11-15T08:58:15;10.80;;;4.38;;
28519;SDS011;15732;48.534;20.382;2022-11-15T09:00:43;8.40;;;2.60;;
28519;SDS011;15732;48.534;20.382;2022-11-15T09:03:10;6.68;;;3.00;;
28519;SDS011;15732;48.534;20.382;2022-11-15T09:05:41;8.20;;;3.65;;
28519;SDS011;15732;48.534;20.382;2022-11-15T09:08:08;6.50;;;2.92;;
28519;SDS011;15732;48.534;20.382;2022-11-15T09:10:37;5.20;;;3.13;;
28519;SDS011;15732;48.534;20.382;2022-11-15T09:13:04;6.68;;;2.95;;
28519;SDS011;15732;48.534;20.382;2022-11-15T09:15:31;9.88;;;4.45;;
28519;SDS011;15732;48.534;20.382;2022-11-15T09:18:02;10.95;;;4.68;;
28519;SDS011;15732;48.534;20.382;2022-11-15T09:20:29;13.60;;;5.95;;
28519;SDS011;15732;48.534;20.382;2022-11-15T09:23:00;13.57;;;5.07;;
28519;SDS011;15732;48.534;20.382;2022-11-15T09:25:28;10.27;;;4.65;;
28519;SDS011;15732;48.534;20.382;2022-11-15T09:27:55;12.27;;;4.63;;
28519;SDS011;15732;48.534;20.382;2022-11-15T09:30:23;9.43;;;4.57;;
28519;SDS011;15732;48.534;20.382;2022-11-15T09:32:51;9.18;;;4.18;;
28519;SDS011;15732;48.534;20.382;2022-11-15T09:35:22;11.27;;;4.60;;
28519;SDS011;15732;48.534;20.382;2022-11-15T09:37:50;6.80;;;3.25;;
28519;SDS011;15732;48.534;20.382;2022-11-15T09:40:17;9.75;;;4.22;;
28519;SDS011;15732;48.534;20.382;2022-11-15T09:45:34;11.27;;;4.88;;
28519;SDS011;15732;48.534;20.382;2022-11-15T09:51:23;8.95;;;4.20;;
28519;SDS011;15732;48.534;20.382;2022-11-15T09:56:32;8.68;;;4.00;;
28519;SDS011;15732;48.534;20.382;2022-11-15T10:05:14;12.65;;;3.95;;
28519;SDS011;15732;48.534;20.382;2022-11-15T10:08:06;15.32;;;5.22;;
28519;SDS011;15732;48.534;20.382;2022-11-15T10:11:00;9.52;;;3.83;;
28519;SDS011;15732;48.534;20.382;2022-11-15T10:13:34;7.60;;;3.70;;
28519;SDS011;15732;48.534;20.382;2022-11-15T10:24:37;12.68;;;5.30;;
28519;SDS011;15732;48.534;20.382;2022-11-15T10:27:42;14.15;;;6.18;;
28519;SDS011;15732;48.534;20.382;2022-11-15T10:30:12;15.30;;;5.72;;
28519;SDS011;15732;48.534;20.382;2022-11-15T10:32:44;14.52;;;4.70;;
28519;SDS011;15732;48.534;20.382;2022-11-15T10:35:27;18.05;;;7.93;;
28519;SDS011;15732;48.534;20.382;2022-11-15T10:38:11;18.88;;;6.55;;
28519;SDS011;15732;48.534;20.382;2022-11-15T10:40:42;9.63;;;4.00;;
28519;SDS011;15732;48.534;20.382;2022-11-15T10:45:48;7.20;;;3.20;;
28519;SDS011;15732;48.534;20.382;2022-11-15T10:48:21;7.90;;;3.67;;
28519;SDS011;15732;48.534;20.382;2022-11-15T10:50:49;8.82;;;3.58;;
28519;SDS011;15732;48.534;20.382;2022-11-15T10:53:23;9.02;;;4.05;;
28519;SDS011;15732;48.534;20.382;2022-11-15T10:55:57;15.10;;;4.67;;
28519;SDS011;15732;48.534;20.382;2022-11-15T11:01:13;10.70;;;5.07;;
28519;SDS011;15732;48.534;20.382;2022-11-15T11:03:45;10.50;;;3.90;;
28519;SDS011;15732;48.534;20.382;2022-11-15T11:06:27;8.35;;;4.15;;
28519;SDS011;15732;48.534;20.382;2022-11-15T11:08:55;18.70;;;5.30;;
28519;SDS011;15732;48.534;20.382;2022-11-15T11:11:44;9.18;;;4.57;;
28519;SDS011;15732;48.534;20.382;2022-11-15T11:14:13;12.77;;;5.65;;
28519;SDS011;15732;48.534;20.382;2022-11-15T11:16:47;10.90;;;5.07;;
28519;SDS011;15732;48.534;20.382;2022-11-15T11:25:50;10.05;;;4.93;;
28519;SDS011;15732;48.534;20.382;2022-11-15T11:28:38;14.13;;;5.45;;
28519;SDS011;15732;48.534;20.382;2022-11-15T11:40:04;11.82;;;4.75;;
28519;SDS011;15732;48.534;20.382;2022-11-15T11:48:43;9.55;;;4.68;;
28519;SDS011;15732;48.534;20.382;2022-11-15T11:51:33;11.00;;;4.75;;
28519;SDS011;15732;48.534;20.382;2022-11-15T11:57:03;11.15;;;4.47;;
28519;SDS011;15732;48.534;20.382;2022-11-15T11:59:56;9.63;;;4.00;;
28519;SDS011;15732;48.534;20.382;2022-11-15T12:08:41;12.80;;;4.47;;
28519;SDS011;15732;48.534;20.382;2022-11-15T12:13:46;12.07;;;4.53;;
28519;SDS011;15732;48.534;20.382;2022-11-15T12:16:24;11.77;;;4.40;;
28519;SDS011;15732;48.534;20.382;2022-11-15T12:18:54;12.75;;;5.10;;
28519;SDS011;15732;48.534;20.382;2022-11-15T12:30:07;10.98;;;5.53;;
28519;SDS011;15732;48.534;20.382;2022-11-15T12:35:01;23.95;;;5.22;;
28519;SDS011;15732;48.534;20.382;2022-11-15T12:42:39;13.50;;;5.05;;
28519;SDS011;15732;48.534;20.382;2022-11-15T12:45:24;8.77;;;5.00;;
28519;SDS011;15732;48.534;20.382;2022-11-15T12:47:51;14.13;;;6.35;;
28519;SDS011;15732;48.534;20.382;2022-11-15T13:12:00;8.48;;;3.78;;
28519;SDS011;15732;48.534;20.382;2022-11-15T13:15:00;14.70;;;5.20;;
28519;SDS011;15732;48.534;20.382;2022-11-15T13:17:54;13.50;;;6.07;;
28519;SDS011;15732;48.534;20.382;2022-11-15T13:23:02;8.38;;;4.43;;
28519;SDS011;15732;48.534;20.382;2022-11-15T13:33:51;16.38;;;6.07;;
28519;SDS011;15732;48.534;20.382;2022-11-15T13:36:23;14.90;;;4.95;;
28519;SDS011;15732;48.534;20.382;2022-11-15T13:38:59;15.10;;;5.72;;
28519;SDS011;15732;48.534;20.382;2022-11-15T13:41:30;15.55;;;6.85;;
28519;SDS011;15732;48.534;20.382;2022-11-15T13:44:24;13.82;;;6.40;;
28519;SDS011;15732;48.534;20.382;2022-11-15T13:47:19;16.33;;;6.93;;
28519;SDS011;15732;48.534;20.382;2022-11-15T13:49:46;19.33;;;8.10;;
28519;SDS011;15732;48.534;20.382;2022-11-15T13:52:17;21.58;;;7.95;;
28519;SDS011;15732;48.534;20.382;2022-11-15T13:57:22;15.70;;;6.75;;
28519;SDS011;15732;48.534;20.382;2022-11-15T13:59:55;14.73;;;6.07;;
28519;SDS011;15732;48.534;20.382;2022-11-15T14:02:29;11.15;;;5.05;;
28519;SDS011;15732;48.534;20.382;2022-11-15T14:05:02;15.95;;;6.35;;
28519;SDS011;15732;48.534;20.382;2022-11-15T14:07:29;15.27;;;4.63;;
28519;SDS011;15732;48.534;20.382;2022-11-15T14:10:24;9.73;;;5.90;;
28519;SDS011;15732;48.534;20.382;2022-11-15T14:12:54;15.30;;;6.00;;
28519;SDS011;15732;48.534;20.382;2022-11-15T14:15:29;15.30;;;6.68;;
28519;SDS011;15732;48.534;20.382;2022-11-15T14:18:04;15.65;;;7.50;;
28519;SDS011;15732;48.534;20.382;2022-11-15T14:20:32;20.27;;;8.68;;
28519;SDS011;15732;48.534;20.382;2022-11-15T14:23:05;20.55;;;8.32;;
28519;SDS011;15732;48.534;20.382;2022-11-15T14:25:55;19.73;;;7.57;;
28519;SDS011;15732;48.534;20.382;2022-11-15T14:31:04;17.55;;;7.03;;
28519;SDS011;15732;48.534;20.382;2022-11-15T14:33:38;17.05;;;7.78;;
28519;SDS011;15732;48.534;20.382;2022-11-15T14:36:14;23.27;;;8.68;;
28519;SDS011;15732;48.534;20.382;2022-11-15T14:39:00;33.95;;;8.55;;
28519;SDS011;15732;48.534;20.382;2022-11-15T14:41:36;18.35;;;8.05;;
28519;SDS011;15732;48.534;20.382;2022-11-15T14:44:06;16.48;;;7.80;;
28519;SDS011;15732;48.534;20.382;2022-11-15T14:46:37;24.42;;;11.18;;
28519;SDS011;15732;48.534;20.382;2022-11-15T14:49:08;17.95;;;8.85;;
28519;SDS011;15732;48.534;20.382;2022-11-15T14:51:35;25.98;;;9.95;;
28519;SDS011;15732;48.534;20.382;2022-11-15T14:54:04;29.83;;;11.30;;
28519;SDS011;15732;48.534;20.382;2022-11-15T14:56:34;29.30;;;10.68;;
28519;SDS011;15732;48.534;20.382;2022-11-15T14:59:01;28.17;;;11.90;;
28519;SDS011;15732;48.534;20.382;2022-11-15T15:01:28;27.00;;;10.85;;
28519;SDS011;15732;48.534;20.382;2022-11-15T15:03:56;33.92;;;15.18;;
28519;SDS011;15732;48.534;20.382;2022-11-15T15:06:24;31.58;;;14.30;;
28519;SDS011;15732;48.534;20.382;2022-11-15T15:08:55;23.23;;;10.95;;
28519;SDS011;15732;48.534;20.382;2022-11-15T15:11:26;31.55;;;12.13;;
28519;SDS011;15732;48.534;20.382;2022-11-15T15:13:59;82.15;;;31.85;;
28519;SDS011;15732;48.534;20.382;2022-11-15T15:16:27;97.75;;;30.55;;
28519;SDS011;15732;48.534;20.382;2022-11-15T15:18:54;108.70;;;34.78;;
28519;SDS011;15732;48.534;20.382;2022-11-15T15:21:26;94.85;;;32.17;;
28519;SDS011;15732;48.534;20.382;2022-11-15T15:26:21;32.92;;;15.85;;
28519;SDS011;15732;48.534;20.382;2022-11-15T15:28:56;35.33;;;12.90;;
28519;SDS011;15732;48.534;20.382;2022-11-15T15:31:23;40.75;;;14.77;;
28519;SDS011;15732;48.534;20.382;2022-11-15T15:33:50;37.88;;;11.20;;
28519;SDS011;15732;48.534;20.382;2022-11-15T15:36:18;36.50;;;16.50;;
28519;SDS011;15732;48.534;20.382;2022-11-15T15:38:45;27.52;;;13.25;;
28519;SDS011;15732;48.534;20.382;2022-11-15T15:41:13;24.13;;;10.15;;
28519;SDS011;15732;48.534;20.382;2022-11-15T15:43:41;20.45;;;11.23;;
28519;SDS011;15732;48.534;20.382;2022-11-15T15:46:14;22.45;;;10.63;;
28519;SDS011;15732;48.534;20.382;2022-11-15T15:48:42;28.20;;;10.70;;
28519;SDS011;15732;48.534;20.382;2022-11-15T15:51:14;22.55;;;10.98;;
28519;SDS011;15732;48.534;20.382;2022-11-15T15:53:45;25.52;;;11.38;;
28519;SDS011;15732;48.534;20.382;2022-11-15T15:56:11;20.98;;;10.13;;
28519;SDS011;15732;48.534;20.382;2022-11-15T15:58:38;21.65;;;11.10;;
28519;SDS011;15732;48.534;20.382;2022-11-15T16:01:06;21.10;;;9.55;;
28519;SDS011;15732;48.534;20.382;2022-11-15T16:03:37;21.67;;;10.35;;
28519;SDS011;15732;48.534;20.382;2022-11-15T16:06:22;19.17;;;9.52;;
28519;SDS011;15732;48.534;20.382;2022-11-15T16:09:00;20.02;;;9.95;;
28519;SDS011;15732;48.534;20.382;2022-11-15T16:11:28;27.15;;;12.52;;
28519;SDS011;15732;48.534;20.382;2022-11-15T16:13:59;22.02;;;10.38;;
28519;SDS011;15732;48.534;20.382;2022-11-15T16:16:30;21.52;;;11.10;;
28519;SDS011;15732;48.534;20.382;2022-11-15T16:19:01;26.20;;;10.75;;
28519;SDS011;15732;48.534;20.382;2022-11-15T16:21:28;21.30;;;9.47;;
28519;SDS011;15732;48.534;20.382;2022-11-15T16:23:59;14.75;;;8.52;;
28519;SDS011;15732;48.534;20.382;2022-11-15T16:26:27;16.13;;;7.60;;
28519;SDS011;15732;48.534;20.382;2022-11-15T16:28:55;17.33;;;8.63;;
28519;SDS011;15732;48.534;20.382;2022-11-15T16:31:27;20.20;;;9.85;;
28519;SDS011;15732;48.534;20.382;2022-11-15T16:33:54;23.65;;;12.30;;
28519;SDS011;15732;48.534;20.382;2022-11-15T16:36:22;27.73;;;11.50;;
28519;SDS011;15732;48.534;20.382;2022-11-15T16:38:51;33.88;;;10.77;;
28519;SDS011;15732;48.534;20.382;2022-11-15T16:41:22;36.95;;;14.43;;
28519;SDS011;15732;48.534;20.382;2022-11-15T16:43:49;45.95;;;15.75;;
28519;SDS011;15732;48.534;20.382;2022-11-15T16:46:18;57.40;;;19.60;;
28519;SDS011;15732;48.534;20.382;2022-11-15T16:48:50;56.58;;;25.13;;
28519;SDS011;15732;48.534;20.382;2022-11-15T16:53:45;30.92;;;13.27;;
28519;SDS011;15732;48.534;20.382;2022-11-15T16:58:40;26.13;;;10.10;;
28519;SDS011;15732;48.534;20.382;2022-11-15T17:01:09;24.83;;;10.60;;
28519;SDS011;15732;48.534;20.382;2022-11-15T17:03:42;28.98;;;13.27;;
28519;SDS011;15732;48.534;20.382;2022-11-15T17:06:10;33.42;;;14.70;;
28519;SDS011;15732;48.534;20.382;2022-11-15T17:08:39;28.92;;;15.23;;
28519;SDS011;15732;48.534;20.382;2022-11-15T17:11:06;34.03;;;13.95;;
28519;SDS011;15732;48.534;20.382;2022-11-15T17:13:33;25.95;;;11.38;;
28519;SDS011;15732;48.534;20.382;2022-11-15T17:16:04;25.40;;;12.70;;
28519;SDS011;15732;48.534;20.382;2022-11-15T17:18:33;23.65;;;10.55;;
28519;SDS011;15732;48.534;20.382;2022-11-15T17:21:04;32.78;;;14.75;;
28519;SDS011;15732;48.534;20.382;2022-11-15T17:23:32;19.58;;;10.38;;
28519;SDS011;15732;48.534;20.382;2022-11-15T17:26:00;19.08;;;10.27;;
28519;SDS011;15732;48.534;20.382;2022-11-15T17:28:31;22.02;;;10.27;;
28519;SDS011;15732;48.534;20.382;2022-11-15T17:30:59;17.92;;;9.05;;